createdAt,value
2018-02-21T00:01:09.712Z,35.20
2018-02-21T00:03:37.507Z,40.20
2018-02-21T00:06:05.272Z,31.07
2018-02-21T00:08:33.088Z,30.63
2018-02-21T00:11:00.834Z,40.90
2018-02-21T00:13:28.622Z,32.40
2018-02-21T00:15:56.405Z,32.33
2018-02-21T00:18:24.294Z,35.63
2018-02-21T00:20:52.073Z,38.87
2018-02-21T00:23:19.861Z,33.10
2018-02-21T00:25:47.590Z,36.13
2018-02-21T00:28:15.385Z,32.83
2018-02-21T00:30:43.201Z,34.50
2018-02-21T00:33:10.979Z,33.60
2018-02-21T00:35:38.793Z,34.87
2018-02-21T00:38:06.597Z,32.63
2018-02-21T00:40:34.524Z,32.13
2018-02-21T00:43:02.337Z,34.83
2018-02-21T00:45:30.086Z,34.33
2018-02-21T00:47:57.916Z,35.50
2018-02-21T00:50:25.679Z,35.20
2018-02-21T00:52:53.509Z,33.37
2018-02-21T00:55:21.266Z,39.97
2018-02-21T00:57:49.114Z,33.30
2018-02-21T01:00:16.879Z,30.70
2018-02-21T01:02:44.682Z,36.87
2018-02-21T01:05:12.427Z,35.33
2018-02-21T01:07:40.231Z,35.67
2018-02-21T01:10:07.999Z,33.40
2018-02-21T01:12:35.822Z,36.90
2018-02-21T01:15:03.589Z,38.63
2018-02-21T01:17:31.459Z,35.33
2018-02-21T01:19:59.217Z,36.47
2018-02-21T01:22:27.079Z,33.63
2018-02-21T01:24:55.012Z,34.90
2018-02-21T01:27:22.765Z,38.27
2018-02-21T01:29:50.599Z,29.65
2018-02-21T01:32:18.351Z,31.20
2018-02-21T01:34:46.170Z,32.85
2018-02-21T01:37:13.941Z,32.88
2018-02-21T01:39:41.756Z,36.20
2018-02-21T01:42:09.555Z,31.10
2018-02-21T01:44:37.441Z,38.63
2018-02-21T01:47:05.262Z,38.35
2018-02-21T01:49:33.108Z,39.70
2018-02-21T01:52:00.873Z,36.60
2018-02-21T01:54:28.742Z,36.08
2018-02-21T01:56:56.505Z,29.87
2018-02-21T01:59:24.318Z,34.72
2018-02-21T02:01:52.070Z,37.75
2018-02-21T02:04:19.862Z,30.37
2018-02-21T02:06:47.627Z,34.25
2018-02-21T02:09:15.448Z,34.40
2018-02-21T02:11:43.228Z,35.90
2018-02-21T02:14:11.041Z,37.25
2018-02-21T02:16:38.806Z,34.17
2018-02-21T02:19:06.629Z,34.72
2018-02-21T02:21:34.417Z,32.70
2018-02-21T02:24:02.269Z,47.05
2018-02-21T02:26:30.098Z,36.70
2018-02-21T02:28:57.924Z,35.22
2018-02-21T02:31:25.797Z,37.55
2018-02-21T02:33:53.608Z,35.03
2018-02-21T02:36:21.436Z,35.22
2018-02-21T02:39:00.924Z,37.25
2018-02-21T02:41:28.710Z,34.92
2018-02-21T02:43:56.609Z,33.08
2018-02-21T02:46:24.344Z,36.40
2018-02-21T02:48:52.216Z,34.70
2018-02-21T02:51:20.024Z,35.85
2018-02-21T02:53:47.936Z,39.38
2018-02-21T02:56:15.714Z,40.25
2018-02-21T02:58:43.535Z,51.10
2018-02-21T03:01:11.325Z,33.28
2018-02-21T03:03:39.133Z,39.25
2018-02-21T03:06:06.956Z,34.08
2018-02-21T03:08:34.827Z,38.70
2018-02-21T03:11:02.614Z,32.95
2018-02-21T03:13:30.496Z,37.38
2018-02-21T03:15:58.295Z,33.22
2018-02-21T03:18:26.049Z,39.97
2018-02-21T03:20:53.912Z,38.80
2018-02-21T03:23:21.727Z,39.25
2018-02-21T03:25:49.632Z,36.90
2018-02-21T03:28:17.452Z,38.85
2018-02-21T03:30:45.366Z,35.65
2018-02-21T03:33:13.186Z,35.00
2018-02-21T03:35:41.072Z,33.20
2018-02-21T03:38:08.894Z,34.33
2018-02-21T03:40:36.667Z,34.65
2018-02-21T03:43:04.478Z,31.95
2018-02-21T03:45:32.331Z,35.20
2018-02-21T03:48:00.116Z,34.42
2018-02-21T03:50:27.926Z,33.42
2018-02-21T03:52:55.725Z,35.50
2018-02-21T03:55:23.537Z,38.78
2018-02-21T03:57:51.313Z,33.65
2018-02-21T04:00:19.237Z,34.85
2018-02-21T04:02:46.990Z,44.65
2018-02-21T04:05:14.799Z,41.90
2018-02-21T04:07:42.600Z,38.30
2018-02-21T04:10:10.433Z,35.28
2018-02-21T04:12:38.249Z,41.67
2018-02-21T04:15:06.209Z,38.47
2018-02-21T04:17:34.023Z,32.60
2018-02-21T04:20:01.869Z,36.78
2018-02-21T04:22:29.694Z,35.05
2018-02-21T04:24:57.540Z,35.58
2018-02-21T04:27:25.355Z,34.53
2018-02-21T04:29:53.227Z,33.03
2018-02-21T04:32:21.082Z,43.55
2018-02-21T04:34:49.027Z,39.63
2018-02-21T04:37:16.841Z,37.47
2018-02-21T04:39:44.683Z,34.10
2018-02-21T04:42:12.531Z,32.10
2018-02-21T04:44:40.388Z,41.25
2018-02-21T04:47:08.195Z,32.13
2018-02-21T04:49:36.064Z,33.03
2018-02-21T04:52:03.852Z,36.57
2018-02-21T04:57:42.738Z,37.22
2018-02-21T05:00:37.578Z,37.03
2018-02-21T05:03:05.664Z,35.83
2018-02-21T05:05:33.725Z,32.17
2018-02-21T05:08:01.642Z,39.90
2018-02-21T05:10:29.607Z,35.30
2018-02-21T05:12:57.831Z,38.73
2018-02-21T05:15:25.772Z,43.13
2018-02-21T05:17:53.764Z,36.43
2018-02-21T05:20:21.676Z,39.47
2018-02-21T05:22:49.545Z,38.67
2018-02-21T05:25:17.763Z,36.40
2018-02-21T05:27:46.115Z,38.00
2018-02-21T05:30:14.422Z,36.95
2018-02-21T05:32:42.343Z,36.80
2018-02-21T05:35:10.337Z,33.90
2018-02-21T05:37:39.237Z,32.55
2018-02-21T05:40:07.127Z,34.85
2018-02-21T05:42:35.032Z,36.53
2018-02-21T05:45:02.900Z,38.45
2018-02-21T05:47:30.777Z,39.15
2018-02-21T05:49:58.619Z,37.97
2018-02-21T05:52:26.477Z,31.17
2018-02-21T05:54:54.328Z,34.95
2018-02-21T05:57:22.188Z,36.45
2018-02-21T05:59:49.972Z,53.87
2018-02-21T06:02:17.868Z,39.35
2018-02-21T06:04:45.658Z,37.65
2018-02-21T06:07:13.504Z,42.65
2018-02-21T06:09:41.311Z,39.83
2018-02-21T06:12:09.137Z,35.00
2018-02-21T06:14:37.010Z,31.05
2018-02-21T06:17:04.863Z,34.05
2018-02-21T06:19:32.679Z,34.17
2018-02-21T06:22:00.511Z,94.68
2018-02-21T06:24:31.066Z,98.68
2018-02-21T06:27:01.671Z,48.45
2018-02-21T06:29:29.995Z,46.83
2018-02-21T06:31:58.242Z,54.30
2018-02-21T06:34:26.398Z,45.22
2018-02-21T06:36:54.230Z,40.75
2018-02-21T06:39:22.025Z,34.25
2018-02-21T06:41:49.866Z,37.85
2018-02-21T06:44:17.698Z,39.33
2018-02-21T06:46:45.534Z,38.83
2018-02-21T06:49:13.394Z,39.67
2018-02-21T06:51:41.574Z,51.45
2018-02-21T06:54:09.557Z,44.63
2018-02-21T06:56:37.795Z,52.78
2018-02-21T06:59:06.300Z,37.70
2018-02-21T07:01:34.512Z,42.95
2018-02-21T07:04:02.941Z,37.40
2018-02-21T07:06:30.979Z,38.85
2018-02-21T07:08:58.995Z,41.17
2018-02-21T07:11:27.125Z,42.30
2018-02-21T07:13:55.380Z,42.70
2018-02-21T07:16:23.356Z,38.40
2018-02-21T07:18:51.526Z,34.10
2018-02-21T07:21:20.160Z,36.92
2018-02-21T07:23:48.077Z,42.50
2018-02-21T07:26:16.080Z,36.13
2018-02-21T07:28:44.209Z,37.45
2018-02-21T07:31:12.316Z,39.47
2018-02-21T07:33:40.342Z,40.45
2018-02-21T07:36:08.376Z,41.30
2018-02-21T07:38:36.360Z,36.80
2018-02-21T07:41:04.478Z,35.07
2018-02-21T07:43:32.506Z,38.97
2018-02-21T07:46:00.442Z,36.97
2018-02-21T07:48:28.409Z,35.87
2018-02-21T07:50:56.365Z,36.80
2018-02-21T07:53:24.390Z,32.60
2018-02-21T07:55:52.278Z,37.20
2018-02-21T07:58:20.190Z,38.00
2018-02-21T08:00:48.005Z,40.10
2018-02-21T08:03:15.924Z,34.97
2018-02-21T08:05:43.863Z,31.50
2018-02-21T08:08:11.716Z,32.50
2018-02-21T08:10:39.634Z,30.80
2018-02-21T08:13:07.559Z,30.50
2018-02-21T08:15:35.532Z,39.70
2018-02-21T08:18:03.492Z,35.57
2018-02-21T08:20:31.407Z,31.03
2018-02-21T08:22:59.330Z,31.10
2018-02-21T08:25:27.288Z,31.47
2018-02-21T08:27:55.191Z,30.93
2018-02-21T08:30:23.866Z,34.90
2018-02-21T08:32:52.000Z,31.80
2018-02-21T08:35:19.872Z,34.83
2018-02-21T08:37:47.812Z,31.47
2018-02-21T08:40:15.736Z,31.90
2018-02-21T08:42:43.669Z,31.27
2018-02-21T08:45:11.574Z,32.30
2018-02-21T08:47:39.540Z,28.63
2018-02-21T08:50:07.436Z,29.90
2018-02-21T08:52:35.276Z,30.53
2018-02-21T08:55:03.103Z,28.93
2018-02-21T08:57:31.047Z,30.97
2018-02-21T08:59:58.999Z,31.80
2018-02-21T09:02:26.890Z,32.50
2018-02-21T09:04:54.784Z,30.33
2018-02-21T09:07:22.734Z,28.07
2018-02-21T09:09:50.610Z,33.97
2018-02-21T09:12:18.634Z,31.27
2018-02-21T09:14:46.554Z,30.57
2018-02-21T09:17:14.454Z,30.33
2018-02-21T09:19:42.318Z,30.80
2018-02-21T09:22:10.253Z,28.27
2018-02-21T09:24:38.201Z,28.93
2018-02-21T09:27:06.204Z,31.50
2018-02-21T09:29:34.094Z,31.30
2018-02-21T09:32:01.960Z,32.10
2018-02-21T09:34:30.268Z,30.47
2018-02-21T09:36:58.172Z,31.33
2018-02-21T09:39:26.129Z,32.33
2018-02-21T09:41:53.970Z,29.87
2018-02-21T09:44:21.908Z,31.67
2018-02-21T09:46:49.831Z,31.40
2018-02-21T09:49:17.818Z,31.10
2018-02-21T09:51:45.747Z,33.03
2018-02-21T09:54:13.762Z,29.23
2018-02-21T09:56:41.821Z,33.57
2018-02-21T09:59:09.760Z,34.30
2018-02-21T10:01:40.073Z,33.50
2018-02-21T10:04:08.177Z,30.03
2018-02-21T10:06:36.180Z,27.23
2018-02-21T10:09:04.148Z,28.03
2018-02-21T10:11:31.972Z,31.40
2018-02-21T10:13:59.820Z,33.37
2018-02-21T10:16:27.709Z,30.60
2018-02-21T10:18:55.647Z,26.93
2018-02-21T10:21:23.549Z,28.10
2018-02-21T10:23:51.473Z,24.50
2018-02-21T10:26:19.359Z,27.33
2018-02-21T10:28:47.274Z,22.90
2018-02-21T10:31:15.148Z,24.20
2018-02-21T10:33:43.074Z,24.97
2018-02-21T10:36:10.972Z,24.90
2018-02-21T10:38:38.873Z,27.20
2018-02-21T10:41:06.773Z,29.10
2018-02-21T10:43:34.697Z,23.90
2018-02-21T10:46:02.594Z,29.70
2018-02-21T10:48:30.520Z,23.57
2018-02-21T10:50:58.390Z,24.23
2018-02-21T10:53:26.279Z,24.30
2018-02-21T10:55:54.144Z,22.80
2018-02-21T10:58:22.276Z,21.67
2018-02-21T11:00:55.605Z,20.70
2018-02-21T11:03:23.520Z,19.87
2018-02-21T11:05:51.416Z,18.70
2018-02-21T11:08:19.293Z,18.83
2018-02-21T11:10:47.141Z,16.00
2018-02-21T11:13:15.098Z,16.23
2018-02-21T11:15:42.988Z,15.97
2018-02-21T11:18:10.934Z,15.23
2018-02-21T11:20:38.896Z,17.37
2018-02-21T11:23:06.784Z,17.23
2018-02-21T11:25:34.657Z,16.87
2018-02-21T11:28:02.477Z,19.97
2018-02-21T11:30:30.420Z,18.13
2018-02-21T11:32:58.202Z,18.10
2018-02-21T11:35:26.099Z,18.43
2018-02-21T11:37:53.996Z,14.60
2018-02-21T11:40:21.925Z,18.00
2018-02-21T11:42:49.775Z,18.83
2018-02-21T11:45:17.692Z,18.53
2018-02-21T11:47:45.533Z,18.67
2018-02-21T11:50:13.414Z,21.83
2018-02-21T11:52:41.317Z,19.30
2018-02-21T11:55:09.204Z,20.20
2018-02-21T11:57:37.070Z,21.57
2018-02-21T12:00:05.024Z,21.43
2018-02-21T12:02:32.824Z,21.20
2018-02-21T12:05:00.725Z,19.83
2018-02-21T12:07:28.612Z,18.80
2018-02-21T12:09:56.495Z,21.90
2018-02-21T12:12:24.350Z,18.83
2018-02-21T12:14:52.316Z,20.07
2018-02-21T12:17:20.200Z,21.30
2018-02-21T12:19:48.092Z,18.00
2018-02-21T12:22:15.956Z,19.43
2018-02-21T12:24:43.859Z,19.30
2018-02-21T12:27:11.733Z,19.47
2018-02-21T12:29:39.664Z,19.73
2018-02-21T12:32:12.541Z,22.90
2018-02-21T12:34:40.459Z,19.27
2018-02-21T12:37:08.308Z,18.57
2018-02-21T12:39:36.776Z,15.73
2018-02-21T12:42:04.608Z,16.30
2018-02-21T12:44:32.561Z,16.33
2018-02-21T12:47:00.368Z,19.27
2018-02-21T12:49:28.275Z,19.17
2018-02-21T12:51:56.207Z,18.70
2018-02-21T12:54:24.114Z,19.80
2018-02-21T12:56:51.972Z,17.63
2018-02-21T12:59:19.873Z,15.77
2018-02-21T13:01:47.719Z,15.47
2018-02-21T13:04:15.569Z,16.83
2018-02-21T13:06:43.545Z,15.27
2018-02-21T13:09:11.477Z,21.17
2018-02-21T13:11:39.346Z,21.57
2018-02-21T13:14:07.221Z,17.20
2018-02-21T13:16:35.137Z,18.10
2018-02-21T13:19:02.955Z,18.50
2018-02-21T13:21:30.844Z,18.93
2018-02-21T13:23:58.688Z,22.57
2018-02-21T13:26:26.595Z,21.87
2018-02-21T13:28:54.409Z,22.33
2018-02-21T13:31:22.336Z,20.63
2018-02-21T13:33:50.232Z,20.00
2018-02-21T13:36:18.118Z,21.37
2018-02-21T13:38:45.937Z,21.30
2018-02-21T13:41:13.848Z,20.57
2018-02-21T13:43:41.736Z,24.93
2018-02-21T13:46:09.709Z,22.73
2018-02-21T13:48:37.573Z,19.60
2018-02-21T13:51:05.469Z,17.17
2018-02-21T13:53:33.300Z,19.60
2018-02-21T13:56:01.220Z,19.20
2018-02-21T13:58:29.100Z,16.10
2018-02-21T14:00:57.054Z,17.10
2018-02-21T14:03:24.928Z,20.50
2018-02-21T14:05:52.801Z,17.13
2018-02-21T14:08:20.663Z,18.50
2018-02-21T14:10:48.501Z,18.10
2018-02-21T14:13:16.400Z,17.50
2018-02-21T14:15:44.300Z,16.83
2018-02-21T14:18:12.216Z,19.30
2018-02-21T14:20:40.144Z,20.23
2018-02-21T14:23:08.016Z,16.93
2018-02-21T14:25:35.965Z,18.00
2018-02-21T14:28:03.829Z,18.80
2018-02-21T14:30:31.668Z,17.90
2018-02-21T14:32:59.537Z,20.43
2018-02-21T14:35:27.369Z,18.77
2018-02-21T14:37:55.320Z,19.40
2018-02-21T14:40:23.259Z,17.93
2018-02-21T14:42:51.151Z,18.13
2018-02-21T14:45:19.061Z,18.17
2018-02-21T14:47:46.936Z,16.90
2018-02-21T14:50:14.820Z,18.40
2018-02-21T14:52:42.744Z,17.97
2018-02-21T14:55:10.669Z,19.10
2018-02-21T14:57:38.470Z,17.40
2018-02-21T15:00:06.330Z,16.70
2018-02-21T15:02:34.247Z,18.17
2018-02-21T15:05:02.141Z,19.67
2018-02-21T15:07:30.043Z,17.50
2018-02-21T15:09:57.856Z,21.67
2018-02-21T15:12:25.785Z,18.07
2018-02-21T15:14:53.589Z,17.03
2018-02-21T15:17:21.508Z,17.57
2018-02-21T15:19:49.368Z,15.87
2018-02-21T15:22:17.295Z,16.53
2018-02-21T15:24:45.188Z,18.37
2018-02-21T15:27:13.072Z,18.63
2018-02-21T15:29:40.945Z,20.17
2018-02-21T15:32:08.853Z,20.80
2018-02-21T15:34:36.668Z,22.20
2018-02-21T15:37:04.587Z,21.90
2018-02-21T15:39:32.420Z,22.90
2018-02-21T15:42:00.316Z,23.57
2018-02-21T15:44:28.174Z,21.13
2018-02-21T15:46:56.161Z,23.20
2018-02-21T15:49:23.966Z,21.43
2018-02-21T15:51:51.822Z,21.50
2018-02-21T15:54:19.771Z,25.40
2018-02-21T15:56:47.659Z,21.77
2018-02-21T15:59:15.955Z,22.07
2018-02-21T16:01:43.909Z,22.93
2018-02-21T16:04:11.795Z,19.50
2018-02-21T16:06:39.678Z,20.50
2018-02-21T16:09:07.540Z,21.20
2018-02-21T16:11:35.492Z,19.77
2018-02-21T16:14:03.303Z,19.77
2018-02-21T16:16:31.137Z,22.07
2018-02-21T16:18:58.933Z,20.93
2018-02-21T16:21:26.776Z,22.17
2018-02-21T16:23:54.596Z,19.17
2018-02-21T16:26:22.428Z,21.37
2018-02-21T16:28:50.313Z,21.97
2018-02-21T16:31:18.210Z,18.73
2018-02-21T16:33:46.072Z,18.20
2018-02-21T16:36:13.921Z,18.47
2018-02-21T16:38:41.750Z,20.53
2018-02-21T16:41:09.646Z,25.30
2018-02-21T16:43:37.567Z,22.33
2018-02-21T16:46:05.347Z,23.10
2018-02-21T16:48:33.212Z,21.80
2018-02-21T16:51:01.106Z,22.30
2018-02-21T16:53:28.939Z,21.03
2018-02-21T16:55:56.743Z,23.33
2018-02-21T16:58:24.603Z,20.90
2018-02-21T17:00:52.485Z,19.37
2018-02-21T17:03:20.376Z,18.83
2018-02-21T17:05:48.188Z,24.00
2018-02-21T17:08:16.023Z,20.87
2018-02-21T17:10:43.836Z,20.77
2018-02-21T17:13:11.710Z,19.13
2018-02-21T17:15:39.540Z,22.83
2018-02-21T17:18:07.413Z,19.60
2018-02-21T17:20:35.248Z,20.53
2018-02-21T17:23:03.120Z,23.73
2018-02-21T17:25:30.966Z,21.63
2018-02-21T17:27:58.791Z,22.63
2018-02-21T17:30:26.577Z,18.23
2018-02-21T17:32:54.394Z,17.90
2018-02-21T17:35:22.171Z,22.43
2018-02-21T17:37:49.978Z,23.80
2018-02-21T17:40:17.778Z,27.20
2018-02-21T17:42:45.620Z,20.93
2018-02-21T17:45:13.395Z,23.30
2018-02-21T17:47:41.253Z,20.60
2018-02-21T17:50:09.567Z,23.53
2018-02-21T17:52:37.577Z,19.87
2018-02-21T17:55:06.006Z,26.07
2018-02-21T17:57:34.215Z,21.27
2018-02-21T18:00:02.987Z,22.30
2018-02-21T18:02:31.423Z,21.40
2018-02-21T18:04:59.827Z,19.90
2018-02-21T18:07:28.167Z,21.90
2018-02-21T18:09:56.322Z,23.30
2018-02-21T18:12:24.868Z,20.93
2018-02-21T18:14:53.242Z,19.83
2018-02-21T18:17:21.374Z,20.47
2018-02-21T18:19:49.173Z,19.20
2018-02-21T18:22:17.006Z,22.70
2018-02-21T18:24:44.766Z,21.47
2018-02-21T18:27:12.551Z,23.57
2018-02-21T18:29:40.420Z,19.73
2018-02-21T18:32:08.206Z,22.63
2018-02-21T18:34:36.077Z,22.53
2018-02-21T18:37:03.891Z,24.20
2018-02-21T18:39:31.817Z,19.27
2018-02-21T18:41:59.606Z,21.37
2018-02-21T18:44:27.480Z,21.17
2018-02-21T18:46:55.352Z,21.87
2018-02-21T18:49:23.220Z,23.53
2018-02-21T18:51:51.127Z,20.50
2018-02-21T18:54:19.100Z,21.00
2018-02-21T18:56:46.973Z,20.93
2018-02-21T18:59:14.907Z,19.57
2018-02-21T19:01:42.836Z,23.67
2018-02-21T19:04:10.804Z,21.07
2018-02-21T19:06:38.673Z,20.47
2018-02-21T19:09:06.551Z,20.40
2018-02-21T19:11:34.360Z,19.70
2018-02-21T19:14:02.296Z,21.93
2018-02-21T19:16:30.168Z,17.67
2018-02-21T19:18:58.088Z,20.10
2018-02-21T19:21:25.892Z,20.27
2018-02-21T19:23:53.804Z,21.67
2018-02-21T19:26:21.684Z,21.00
2018-02-21T19:28:49.589Z,20.63
2018-02-21T19:31:17.414Z,19.63
2018-02-21T19:33:45.590Z,22.07
2018-02-21T19:36:13.484Z,23.23
2018-02-21T19:38:41.322Z,21.80
2018-02-21T19:41:09.173Z,23.00
2018-02-21T19:43:37.113Z,17.97
2018-02-21T19:46:05.020Z,22.70
2018-02-21T19:48:32.936Z,21.90
2018-02-21T19:51:00.812Z,24.90
2018-02-21T19:53:28.799Z,22.73
2018-02-21T19:55:56.704Z,31.77
2018-02-21T19:58:24.631Z,23.10
2018-02-21T20:00:52.522Z,21.90
2018-02-21T20:03:20.397Z,24.07
2018-02-21T20:05:48.276Z,23.40
2018-02-21T20:08:16.247Z,25.40
2018-02-21T20:10:44.108Z,22.27
2018-02-21T20:13:12.007Z,20.73
2018-02-21T20:15:39.902Z,20.37
2018-02-21T20:18:07.792Z,20.47
2018-02-21T20:20:35.713Z,19.73
2018-02-21T20:23:03.581Z,19.63
2018-02-21T20:25:31.527Z,22.73
2018-02-21T20:27:59.417Z,21.50
2018-02-21T20:30:27.323Z,22.50
2018-02-21T20:32:55.142Z,21.53
2018-02-21T20:35:23.083Z,24.10
2018-02-21T20:37:50.984Z,17.63
2018-02-21T20:40:18.904Z,19.67
2018-02-21T20:42:46.685Z,20.80
2018-02-21T20:45:14.585Z,22.17
2018-02-21T20:47:42.377Z,21.20
2018-02-21T20:50:10.340Z,23.53
2018-02-21T20:52:38.255Z,24.20
2018-02-21T20:55:06.153Z,21.40
2018-02-21T20:57:34.016Z,20.10
2018-02-21T21:00:01.859Z,21.67
2018-02-21T21:02:29.656Z,21.63
2018-02-21T21:04:57.467Z,18.60
2018-02-21T21:07:25.292Z,19.40
2018-02-21T21:09:53.131Z,20.03
2018-02-21T21:12:20.951Z,20.23
2018-02-21T21:14:48.861Z,19.83
2018-02-21T21:17:16.680Z,22.53
2018-02-21T21:22:18.682Z,18.83
2018-02-21T21:24:46.552Z,20.27
2018-02-21T21:27:14.416Z,19.27
2018-02-21T21:29:42.259Z,21.07
2018-02-21T21:32:10.045Z,19.57
2018-02-21T21:34:37.901Z,22.10
2018-02-21T21:37:05.804Z,19.87
2018-02-21T21:39:33.680Z,22.87
2018-02-21T21:42:01.484Z,21.03
2018-02-21T21:44:29.401Z,26.23
2018-02-21T21:46:57.243Z,23.33
2018-02-21T21:49:25.123Z,22.57
2018-02-21T21:51:52.910Z,18.80
2018-02-21T21:54:20.703Z,19.30
2018-02-21T21:56:48.657Z,23.00
2018-02-21T21:59:16.499Z,24.70
2018-02-21T22:01:44.347Z,23.17
2018-02-21T22:04:12.208Z,22.87
2018-02-21T22:06:40.050Z,26.07
2018-02-21T22:09:07.921Z,25.53
2018-02-21T22:11:35.780Z,23.90
2018-02-21T22:14:03.601Z,24.30
2018-02-21T22:16:31.440Z,26.47
2018-02-21T22:18:59.382Z,24.23
2018-02-21T22:21:27.259Z,19.73
2018-02-21T22:23:55.062Z,22.08
2018-02-21T22:26:22.873Z,20.63
2018-02-21T22:28:50.661Z,26.00
2018-02-21T22:31:18.512Z,23.70
2018-02-21T22:33:46.301Z,23.20
2018-02-21T22:36:14.139Z,22.73
2018-02-21T22:38:41.939Z,26.00
2018-02-21T22:41:09.812Z,23.57
2018-02-21T22:43:37.619Z,24.47
2018-02-21T22:46:05.482Z,20.50
2018-02-21T22:48:33.283Z,20.27
2018-02-21T22:51:01.094Z,22.00
2018-02-21T22:53:28.933Z,20.80
2018-02-21T22:55:56.776Z,19.63
2018-02-21T22:58:24.568Z,24.00
2018-02-21T23:00:52.498Z,127.73
2018-02-21T23:03:20.451Z,102.47
2018-02-21T23:05:48.311Z,212.88
2018-02-21T23:08:16.159Z,47.00
2018-02-21T23:10:44.012Z,26.60
2018-02-21T23:13:11.936Z,34.73
2018-02-21T23:15:39.748Z,26.80
2018-02-21T23:18:07.567Z,24.63
2018-02-21T23:20:35.450Z,21.70
2018-02-21T23:23:03.244Z,26.40
2018-02-21T23:25:31.160Z,25.80
2018-02-21T23:27:58.906Z,22.40
2018-02-21T23:30:26.715Z,23.77
2018-02-21T23:32:54.537Z,25.13
2018-02-21T23:35:22.356Z,20.90
2018-02-21T23:37:50.131Z,26.35
2018-02-21T23:40:17.990Z,22.60
2018-02-21T23:42:45.783Z,24.37
2018-02-21T23:45:13.628Z,28.83
2018-02-21T23:47:41.451Z,25.10
2018-02-21T23:50:09.254Z,22.50
2018-02-21T23:52:37.204Z,26.42
2018-02-21T23:55:04.989Z,27.13
2018-02-21T23:57:32.819Z,23.30
